createdAt,value
2017-11-28T00:01:22.288Z,79.60
2017-11-28T00:03:54.731Z,79.64
2017-11-28T00:06:26.429Z,79.75
2017-11-28T00:08:57.895Z,79.63
2017-11-28T00:11:29.344Z,79.89
2017-11-28T00:14:01.204Z,80.06
2017-11-28T00:16:32.631Z,80.34
2017-11-28T00:19:04.346Z,80.54
2017-11-28T00:21:36.057Z,80.92
2017-11-28T00:24:07.532Z,80.62
2017-11-28T00:26:38.939Z,80.59
2017-11-28T00:29:10.494Z,80.78
2017-11-28T00:31:41.938Z,80.98
2017-11-28T00:34:13.538Z,80.93
2017-11-28T00:36:45.204Z,80.85
2017-11-28T00:39:16.578Z,81.12
2017-11-28T00:41:49.509Z,81.08
2017-11-28T00:44:21.242Z,81.21
2017-11-28T00:46:52.721Z,81.48
2017-11-28T00:49:24.191Z,81.82
2017-11-28T00:51:55.954Z,81.96
2017-11-28T00:54:27.727Z,82.06
2017-11-28T00:56:59.189Z,82.36
2017-11-28T00:59:31.751Z,82.51
2017-11-28T01:02:04.333Z,82.49
2017-11-28T01:04:35.768Z,82.50
2017-11-28T01:07:07.491Z,82.55
2017-11-28T01:09:39.174Z,82.40
2017-11-28T01:12:10.722Z,82.54
2017-11-28T01:14:42.434Z,82.79
2017-11-28T01:17:13.888Z,82.69
2017-11-28T01:19:45.283Z,82.45
2017-11-28T01:22:16.997Z,82.43
2017-11-28T01:24:48.536Z,82.50
2017-11-28T01:27:20.102Z,82.67
2017-11-28T01:29:51.765Z,82.44
2017-11-28T01:32:23.476Z,82.63
2017-11-28T01:34:54.973Z,82.64
2017-11-28T01:37:26.697Z,83.01
2017-11-28T01:39:58.425Z,83.04
2017-11-28T01:42:29.996Z,83.13
2017-11-28T01:45:01.533Z,83.13
2017-11-28T01:47:33.341Z,83.13
2017-11-28T01:50:06.156Z,82.93
2017-11-28T01:52:37.690Z,83.31
2017-11-28T01:55:09.366Z,83.50
2017-11-28T01:57:41.646Z,83.69
2017-11-28T02:00:13.771Z,83.54
2017-11-28T02:02:45.202Z,83.61
2017-11-28T02:05:17.060Z,83.46
2017-11-28T02:07:48.494Z,83.54
2017-11-28T02:10:20.005Z,84.05
2017-11-28T02:12:51.639Z,84.10
2017-11-28T02:15:23.042Z,84.05
2017-11-28T02:17:54.435Z,84.30
2017-11-28T02:20:25.898Z,84.68
2017-11-28T02:22:58.892Z,84.68
2017-11-28T02:25:31.694Z,84.73
2017-11-28T02:28:04.638Z,84.86
2017-11-28T02:30:36.269Z,85.10
2017-11-28T02:33:08.284Z,85.00
2017-11-28T02:35:39.758Z,84.62
2017-11-28T02:38:11.427Z,84.33
2017-11-28T02:40:51.675Z,84.37
2017-11-28T02:43:23.102Z,84.28
2017-11-28T02:45:54.500Z,84.67
2017-11-28T02:48:26.273Z,84.74
2017-11-28T02:50:57.882Z,84.41
2017-11-28T02:53:29.577Z,84.61
2017-11-28T02:56:01.398Z,84.48
2017-11-28T02:58:32.868Z,84.78
2017-11-28T03:01:04.985Z,85.00
2017-11-28T03:03:37.046Z,84.99
2017-11-28T03:06:08.594Z,84.75
2017-11-28T03:08:40.972Z,84.68
2017-11-28T03:11:12.344Z,84.81
2017-11-28T03:13:44.079Z,84.99
2017-11-28T03:16:15.520Z,84.93
2017-11-28T03:18:47.022Z,84.78
2017-11-28T03:21:18.895Z,84.59
2017-11-28T03:23:50.437Z,84.78
2017-11-28T03:26:21.947Z,84.61
2017-11-28T03:28:53.821Z,84.51
2017-11-28T03:31:25.493Z,84.46
2017-11-28T03:34:00.598Z,84.29
2017-11-28T03:36:33.587Z,84.27
2017-11-28T03:39:05.723Z,84.24
2017-11-28T03:41:37.713Z,84.30
2017-11-28T03:44:09.802Z,84.39
2017-11-28T03:46:42.593Z,84.34
2017-11-28T03:49:15.422Z,84.31
2017-11-28T03:51:48.108Z,84.59
2017-11-28T03:54:20.261Z,84.69
2017-11-28T03:56:51.935Z,84.37
2017-11-28T03:59:23.498Z,84.68
2017-11-28T04:01:55.205Z,84.61
2017-11-28T04:04:26.691Z,84.75
2017-11-28T04:06:58.147Z,84.77
2017-11-28T04:09:29.819Z,84.76
2017-11-28T04:12:03.285Z,84.70
2017-11-28T04:14:34.685Z,84.72
2017-11-28T04:17:06.482Z,84.85
2017-11-28T04:19:37.890Z,84.92
2017-11-28T04:22:09.354Z,84.76
2017-11-28T04:24:41.486Z,84.43
2017-11-28T04:27:12.910Z,84.44
2017-11-28T04:29:45.548Z,84.48
2017-11-28T04:32:18.063Z,84.47
2017-11-28T04:34:49.974Z,83.74
2017-11-28T04:37:21.457Z,83.87
2017-11-28T04:39:52.886Z,83.62
2017-11-28T04:42:24.315Z,83.34
2017-11-28T04:44:55.737Z,83.15
2017-11-28T04:47:27.540Z,83.37
2017-11-28T04:49:58.980Z,83.08
2017-11-28T04:52:30.601Z,83.15
2017-11-28T04:55:02.127Z,82.93
2017-11-28T04:57:33.879Z,83.23
2017-11-28T05:00:06.140Z,83.09
2017-11-28T05:02:38.267Z,83.30
2017-11-28T05:05:10.004Z,82.97
2017-11-28T05:07:42.410Z,83.10
2017-11-28T05:10:15.874Z,82.89
2017-11-28T05:12:47.600Z,82.90
2017-11-28T05:15:19.055Z,82.84
2017-11-28T05:17:51.297Z,82.40
2017-11-28T05:20:22.735Z,82.41
2017-11-28T05:22:55.838Z,81.88
2017-11-28T05:25:27.765Z,82.33
2017-11-28T05:27:59.462Z,82.38
2017-11-28T05:30:31.206Z,82.60
2017-11-28T05:33:03.335Z,82.39
2017-11-28T05:35:35.095Z,82.77
2017-11-28T05:38:07.536Z,83.06
2017-11-28T05:40:38.949Z,82.79
2017-11-28T05:43:10.931Z,82.82
2017-11-28T05:45:42.917Z,83.01
2017-11-28T05:48:14.859Z,82.66
2017-11-28T05:50:46.278Z,82.75
2017-11-28T05:53:17.735Z,82.82
2017-11-28T05:55:49.444Z,82.72
2017-11-28T05:58:20.901Z,82.66
2017-11-28T06:00:53.131Z,82.67
2017-11-28T06:03:24.915Z,82.71
2017-11-28T06:05:57.757Z,82.83
2017-11-28T06:08:29.294Z,82.86
2017-11-28T06:11:01.276Z,82.85
2017-11-28T06:13:33.630Z,82.79
2017-11-28T06:16:06.081Z,83.03
2017-11-28T06:18:39.257Z,82.73
2017-11-28T06:21:11.473Z,82.45
2017-11-28T06:23:43.950Z,82.42
2017-11-28T06:26:15.691Z,82.12
2017-11-28T06:28:47.239Z,82.45
2017-11-28T06:31:18.687Z,82.83
2017-11-28T06:33:50.324Z,83.02
2017-11-28T06:36:22.137Z,82.85
2017-11-28T06:38:53.651Z,82.64
2017-11-28T06:41:25.105Z,83.08
2017-11-28T06:43:57.114Z,83.00
2017-11-28T06:46:28.925Z,82.87
2017-11-28T06:49:00.502Z,83.09
2017-11-28T06:51:32.417Z,83.30
2017-11-28T06:54:05.803Z,83.47
2017-11-28T06:56:38.042Z,83.24
2017-11-28T06:59:09.518Z,83.34
2017-11-28T07:01:41.120Z,83.19
2017-11-28T07:06:48.455Z,83.34
2017-11-28T07:09:19.906Z,83.05
2017-11-28T07:11:51.871Z,83.32
2017-11-28T07:14:23.291Z,83.50
2017-11-28T07:16:54.721Z,83.20
2017-11-28T07:19:26.624Z,82.92
2017-11-28T07:21:58.036Z,83.06
2017-11-28T07:24:29.688Z,83.06
2017-11-28T07:27:01.346Z,83.18
2017-11-28T07:29:33.869Z,83.02
2017-11-28T07:32:06.112Z,82.96
2017-11-28T07:34:37.645Z,82.70
2017-11-28T07:37:09.401Z,82.69
2017-11-28T07:39:41.060Z,82.77
2017-11-28T07:42:13.208Z,82.40
2017-11-28T07:44:44.928Z,82.28
2017-11-28T07:47:16.397Z,82.33
2017-11-28T07:49:47.869Z,82.29
2017-11-28T07:52:19.357Z,82.52
2017-11-28T07:54:50.781Z,82.35
2017-11-28T07:57:23.309Z,82.25
2017-11-28T07:59:54.764Z,81.12
2017-11-28T08:02:26.809Z,80.97
2017-11-28T08:04:58.225Z,80.86
2017-11-28T08:07:30.003Z,81.27
2017-11-28T08:10:02.645Z,80.63
2017-11-28T08:12:34.100Z,80.89
2017-11-28T08:15:05.583Z,80.29
2017-11-28T08:17:37.082Z,79.66
2017-11-28T08:20:08.645Z,79.57
2017-11-28T08:22:40.517Z,78.33
2017-11-28T08:25:12.079Z,78.07
2017-11-28T08:27:43.609Z,78.12
2017-11-28T08:30:15.358Z,77.26
2017-11-28T08:32:48.155Z,77.00
2017-11-28T08:35:20.132Z,77.10
2017-11-28T08:37:52.987Z,76.96
2017-11-28T08:40:25.735Z,76.89
2017-11-28T08:42:57.292Z,76.88
2017-11-28T08:45:29.251Z,77.00
2017-11-28T08:48:00.939Z,75.81
2017-11-28T08:50:33.962Z,75.56
2017-11-28T08:53:05.707Z,75.28
2017-11-28T08:55:38.206Z,75.16
2017-11-28T09:00:47.169Z,75.23
2017-11-28T09:03:18.592Z,74.54
2017-11-28T09:05:52.003Z,73.97
2017-11-28T09:08:24.181Z,73.47
2017-11-28T09:10:55.640Z,73.96
2017-11-28T09:13:27.090Z,73.67
2017-11-28T09:15:58.933Z,73.67
2017-11-28T09:18:32.180Z,73.51
2017-11-28T09:21:04.001Z,73.31
2017-11-28T09:23:35.575Z,73.08
2017-11-28T09:26:07.193Z,72.92
2017-11-28T09:28:40.124Z,73.58
2017-11-28T09:31:11.814Z,73.57
2017-11-28T09:33:44.284Z,73.70
2017-11-28T09:36:16.275Z,73.80
2017-11-28T09:38:47.998Z,73.61
2017-11-28T09:41:33.612Z,73.37
2017-11-28T09:44:44.269Z,73.34
2017-11-28T09:47:35.460Z,72.97
2017-11-28T09:50:29.676Z,73.21
2017-11-28T09:53:13.324Z,73.55
2017-11-28T09:56:24.634Z,73.73
2017-11-28T09:59:13.930Z,74.23
2017-11-28T10:01:54.422Z,74.06
2017-11-28T10:04:40.045Z,73.86
2017-11-28T10:07:21.975Z,74.03
2017-11-28T10:10:25.411Z,73.93
2017-11-28T10:13:12.952Z,74.25
2017-11-28T10:16:06.585Z,74.21
2017-11-28T10:19:02.208Z,74.48
2017-11-28T10:21:52.506Z,74.39
2017-11-28T10:24:31.912Z,74.37
2017-11-28T10:27:31.175Z,74.21
2017-11-28T10:33:15.151Z,72.01
2017-11-28T10:36:33.033Z,69.94
2017-11-28T10:39:05.098Z,69.92
2017-11-28T10:41:36.513Z,68.03
2017-11-28T10:44:08.445Z,65.67
2017-11-28T10:46:41.081Z,62.78
2017-11-28T10:49:12.585Z,61.33
2017-11-28T10:51:44.139Z,61.64
2017-11-28T10:54:15.981Z,62.29
2017-11-28T10:56:47.599Z,62.98
2017-11-28T10:59:19.365Z,63.34
2017-11-28T11:01:50.835Z,63.67
2017-11-28T11:04:22.407Z,63.89
2017-11-28T11:06:54.321Z,63.99
2017-11-28T11:09:25.755Z,64.63
2017-11-28T11:11:57.250Z,64.88
2017-11-28T11:14:29.220Z,65.53
2017-11-28T11:17:00.890Z,65.74
2017-11-28T11:19:32.501Z,67.12
2017-11-28T11:22:05.414Z,68.70
2017-11-28T11:24:37.532Z,68.75
2017-11-28T11:27:08.935Z,68.37
2017-11-28T11:29:40.657Z,68.42
2017-11-28T11:32:12.324Z,67.57
2017-11-28T11:34:43.705Z,67.70
2017-11-28T11:37:15.508Z,67.02
2017-11-28T11:39:47.013Z,66.19
2017-11-28T11:42:18.583Z,67.35
2017-11-28T11:44:50.321Z,67.14
2017-11-28T11:47:21.733Z,66.60
2017-11-28T11:49:53.172Z,67.16
2017-11-28T11:52:24.903Z,67.01
2017-11-28T11:54:56.376Z,66.94
2017-11-28T11:57:28.385Z,67.40
2017-11-28T11:59:59.800Z,67.35
2017-11-28T12:02:31.789Z,66.55
2017-11-28T12:05:03.855Z,67.73
2017-11-28T12:07:35.587Z,67.87
2017-11-28T12:10:07.751Z,68.27
2017-11-28T12:12:39.318Z,68.30
2017-11-28T12:15:10.950Z,68.62
2017-11-28T12:17:42.498Z,68.41
2017-11-28T12:20:14.469Z,68.43
2017-11-28T12:22:46.269Z,69.14
2017-11-28T12:25:17.804Z,69.29
2017-11-28T12:27:50.159Z,69.56
2017-11-28T12:30:22.074Z,69.58
2017-11-28T12:32:53.569Z,68.94
2017-11-28T12:35:25.689Z,69.48
2017-11-28T12:37:57.182Z,69.85
2017-11-28T12:40:29.287Z,68.67
2017-11-28T12:43:01.639Z,68.78
2017-11-28T12:45:33.236Z,69.66
2017-11-28T12:48:06.259Z,69.77
2017-11-28T12:50:38.128Z,69.69
2017-11-28T12:53:09.874Z,70.58
2017-11-28T12:55:41.369Z,69.80
2017-11-28T12:58:14.757Z,69.15
2017-11-28T13:00:46.583Z,69.92
2017-11-28T13:03:18.075Z,70.28
2017-11-28T13:05:50.175Z,70.25
2017-11-28T13:08:22.013Z,70.03
2017-11-28T13:10:53.709Z,69.51
2017-11-28T13:13:26.309Z,69.55
2017-11-28T13:15:58.130Z,69.02
2017-11-28T13:18:30.109Z,68.82
2017-11-28T13:21:02.309Z,68.96
2017-11-28T13:23:35.730Z,69.37
2017-11-28T13:26:07.736Z,69.54
2017-11-28T13:28:39.526Z,69.87
2017-11-28T13:31:11.626Z,70.92
2017-11-28T13:33:43.170Z,70.98
2017-11-28T13:36:15.824Z,70.69
2017-11-28T13:38:47.513Z,70.95
2017-11-28T13:41:20.030Z,70.95
2017-11-28T13:43:51.859Z,71.90
2017-11-28T13:49:19.856Z,71.93
2017-11-28T13:51:51.973Z,71.84
2017-11-28T13:54:23.704Z,71.52
2017-11-28T13:56:56.187Z,71.25
2017-11-28T13:59:27.927Z,70.73
2017-11-28T14:01:59.595Z,71.32
2017-11-28T14:04:31.853Z,71.37
2017-11-28T14:07:03.901Z,71.41
2017-11-28T14:09:36.496Z,71.29
2017-11-28T14:12:08.835Z,71.34
2017-11-28T14:14:40.594Z,71.68
2017-11-28T14:17:12.983Z,71.34
2017-11-28T14:19:45.452Z,71.49
2017-11-28T14:22:17.524Z,71.50
2017-11-28T14:24:49.708Z,70.71
2017-11-28T14:27:21.888Z,71.11
2017-11-28T14:29:53.945Z,71.49
2017-11-28T14:32:26.784Z,71.34
2017-11-28T14:34:58.770Z,71.13
2017-11-28T14:37:30.891Z,70.58
2017-11-28T14:40:04.568Z,71.35
2017-11-28T14:42:36.772Z,71.13
2017-11-28T14:45:08.859Z,70.38
2017-11-28T14:47:41.884Z,70.01
2017-11-28T14:50:14.570Z,69.75
2017-11-28T14:52:47.181Z,70.25
2017-11-28T14:55:23.067Z,70.62
2017-11-28T14:57:56.197Z,70.95
2017-11-28T15:01:05.305Z,71.37
2017-11-28T15:03:37.797Z,71.71
2017-11-28T15:06:14.161Z,72.11
2017-11-28T15:08:50.662Z,72.61
2017-11-28T15:11:22.873Z,72.88
2017-11-28T15:13:59.050Z,73.00
2017-11-28T15:16:35.788Z,72.73
2017-11-28T15:19:08.919Z,73.08
2017-11-28T15:21:41.340Z,73.45
2017-11-28T15:24:16.766Z,73.87
2017-11-28T15:26:48.928Z,74.04
2017-11-28T15:29:21.161Z,74.41
2017-11-28T15:31:53.276Z,74.71
2017-11-28T15:34:32.692Z,74.97
2017-11-28T15:37:05.000Z,75.18
2017-11-28T15:39:36.937Z,75.38
2017-11-28T15:42:10.208Z,75.62
2017-11-28T15:44:42.139Z,75.84
2017-11-28T15:47:14.330Z,75.94
2017-11-28T15:49:47.122Z,76.17
2017-11-28T15:52:19.237Z,76.35
2017-11-28T15:54:52.043Z,76.55
2017-11-28T15:57:24.374Z,76.56
2017-11-28T15:59:56.583Z,76.62
2017-11-28T16:02:29.707Z,76.63
2017-11-28T16:05:07.556Z,76.63
2017-11-28T16:07:43.967Z,76.67
2017-11-28T16:10:16.885Z,76.73
2017-11-28T16:12:48.802Z,77.08
2017-11-28T16:15:21.183Z,77.19
2017-11-28T16:17:54.949Z,77.51
2017-11-28T16:20:27.137Z,77.97
2017-11-28T16:22:59.359Z,77.90
2017-11-28T16:25:32.411Z,77.60
2017-11-28T16:28:07.378Z,77.71
2017-11-28T16:30:39.588Z,77.42
2017-11-28T16:33:11.611Z,77.59
2017-11-28T16:35:43.897Z,77.70
2017-11-28T16:38:16.277Z,77.62
2017-11-28T16:40:48.897Z,77.68
2017-11-28T16:43:22.185Z,77.34
2017-11-28T16:45:54.178Z,76.76
2017-11-28T16:48:26.065Z,76.04
2017-11-28T16:50:57.985Z,75.86
2017-11-28T16:53:30.776Z,75.10
2017-11-28T16:56:05.423Z,74.65
2017-11-28T16:58:38.236Z,73.79
2017-11-28T17:01:10.567Z,74.07
2017-11-28T17:03:42.802Z,73.86
2017-11-28T17:06:16.167Z,73.42
2017-11-28T17:08:49.187Z,72.65
2017-11-28T17:11:21.252Z,72.95
2017-11-28T17:14:00.026Z,72.66
2017-11-28T17:16:33.848Z,72.38
2017-11-28T17:19:06.465Z,72.06
2017-11-28T17:21:45.962Z,71.80
2017-11-28T17:24:31.327Z,71.26
2017-11-28T17:27:03.761Z,71.39
2017-11-28T17:29:36.023Z,71.36
2017-11-28T17:32:08.078Z,71.33
2017-11-28T17:34:41.274Z,71.54
2017-11-28T17:37:13.681Z,71.93
2017-11-28T17:39:46.896Z,72.13
2017-11-28T17:42:19.097Z,71.98
2017-11-28T17:44:51.355Z,71.86
2017-11-28T17:47:23.234Z,71.98
2017-11-28T17:49:55.506Z,72.47
2017-11-28T17:52:27.426Z,72.77
2017-11-28T17:54:59.896Z,73.00
2017-11-28T17:57:32.432Z,73.83
2017-11-28T18:00:05.826Z,74.29
2017-11-28T18:02:39.018Z,75.08
2017-11-28T18:05:11.935Z,75.77
2017-11-28T18:07:43.881Z,75.98
2017-11-28T18:10:16.971Z,75.98
2017-11-28T18:12:48.908Z,76.30
2017-11-28T18:15:21.818Z,76.69
2017-11-28T18:17:53.804Z,77.03
2017-11-28T18:20:26.044Z,77.18
2017-11-28T18:22:58.212Z,77.18
2017-11-28T18:25:31.018Z,77.31
2017-11-28T18:28:03.955Z,77.24
2017-11-28T18:30:36.290Z,77.25
2017-11-28T18:33:08.520Z,77.30
2017-11-28T18:35:40.651Z,77.39
2017-11-28T18:38:13.558Z,77.43
2017-11-28T18:40:45.801Z,77.39
2017-11-28T18:43:17.663Z,77.72
2017-11-28T18:45:50.427Z,78.14
2017-11-28T18:48:22.491Z,77.92
2017-11-28T18:50:54.448Z,78.05
2017-11-28T18:53:26.362Z,78.06
2017-11-28T18:55:58.660Z,78.11
2017-11-28T18:58:31.869Z,78.18
2017-11-28T19:01:05.931Z,78.40
2017-11-28T19:03:40.915Z,78.35
2017-11-28T19:06:14.533Z,78.14
2017-11-28T19:08:45.954Z,78.01
2017-11-28T19:11:17.406Z,78.16
2017-11-28T19:13:49.122Z,78.10
2017-11-28T19:16:20.729Z,78.08
2017-11-28T19:18:52.337Z,78.29
2017-11-28T19:21:24.139Z,78.23
2017-11-28T19:23:55.594Z,78.28
2017-11-28T19:26:27.719Z,78.22
2017-11-28T19:28:59.153Z,78.33
2017-11-28T19:31:30.776Z,78.45
2017-11-28T19:34:04.756Z,78.62
2017-11-28T19:36:37.606Z,78.69
2017-11-28T19:39:09.007Z,78.87
2017-11-28T19:41:41.646Z,78.71
2017-11-28T19:44:13.731Z,78.82
2017-11-28T19:46:45.271Z,78.93
2017-11-28T19:49:30.852Z,78.96
2017-11-28T19:52:11.277Z,79.12
2017-11-28T19:54:43.930Z,79.14
2017-11-28T19:57:15.633Z,79.11
2017-11-28T19:59:47.478Z,79.03
2017-11-28T20:02:21.586Z,79.19
2017-11-28T20:04:53.187Z,79.40
2017-11-28T20:07:25.688Z,79.39
2017-11-28T20:09:57.628Z,79.58
2017-11-28T20:12:29.317Z,79.46
2017-11-28T20:15:01.334Z,79.53
2017-11-28T20:17:33.030Z,79.83
2017-11-28T20:20:09.292Z,79.68
2017-11-28T20:22:40.660Z,79.98
2017-11-28T20:25:13.614Z,79.90
2017-11-28T20:27:45.105Z,79.89
2017-11-28T20:30:16.653Z,79.86
2017-11-28T20:32:55.660Z,79.91
2017-11-28T20:38:25.114Z,79.86
2017-11-28T20:40:56.507Z,80.14
2017-11-28T20:43:27.941Z,80.16
2017-11-28T20:45:59.736Z,80.13
2017-11-28T20:48:31.392Z,80.11
2017-11-28T20:51:04.823Z,79.99
2017-11-28T20:53:36.448Z,79.85
2017-11-28T20:56:08.025Z,79.54
2017-11-28T20:58:39.388Z,79.88
2017-11-28T21:01:11.113Z,80.41
2017-11-28T21:03:42.887Z,80.44
2017-11-28T21:06:14.232Z,80.79
2017-11-28T21:08:45.866Z,81.41
2017-11-28T21:11:17.653Z,81.22
2017-11-28T21:13:49.127Z,81.36
2017-11-28T21:16:20.797Z,81.49
2017-11-28T21:18:52.179Z,81.41
2017-11-28T21:21:23.866Z,81.73
2017-11-28T21:23:55.233Z,81.74
2017-11-28T21:26:26.704Z,82.01
2017-11-28T21:28:58.429Z,82.16
2017-11-28T21:31:30.543Z,82.11
2017-11-28T21:34:03.792Z,82.26
2017-11-28T21:36:35.473Z,82.34
2017-11-28T21:39:07.473Z,82.29
2017-11-28T21:41:38.913Z,82.51
2017-11-28T21:44:11.740Z,82.53
2017-11-28T21:46:43.144Z,82.46
2017-11-28T21:49:14.557Z,82.75
2017-11-28T21:51:46.012Z,82.88
2017-11-28T21:54:17.826Z,82.99
2017-11-28T21:56:49.385Z,83.23
2017-11-28T21:59:20.744Z,83.34
2017-11-28T22:01:52.401Z,83.67
2017-11-28T22:04:23.791Z,83.80
2017-11-28T22:06:55.129Z,83.70
2017-11-28T22:09:26.854Z,83.86
2017-11-28T22:11:58.529Z,84.03
2017-11-28T22:14:30.339Z,83.87
2017-11-28T22:17:01.910Z,83.76
2017-11-28T22:19:33.336Z,83.44
2017-11-28T22:22:06.752Z,83.24
2017-11-28T22:24:38.233Z,83.17
2017-11-28T22:27:09.915Z,83.03
2017-11-28T22:29:41.285Z,82.78
2017-11-28T22:32:14.349Z,82.85
2017-11-28T22:34:46.471Z,82.59
2017-11-28T22:37:17.970Z,82.08
2017-11-28T22:39:50.780Z,81.96
2017-11-28T22:42:24.082Z,81.89
2017-11-28T22:44:57.816Z,81.23
2017-11-28T22:47:31.006Z,80.95
2017-11-28T22:50:05.445Z,80.75
2017-11-28T22:52:37.043Z,80.37
2017-11-28T22:55:14.403Z,80.23
2017-11-28T22:57:46.128Z,80.05
2017-11-28T23:00:18.430Z,80.07
2017-11-28T23:03:53.030Z,80.15
2017-11-28T23:06:24.380Z,79.87
2017-11-28T23:08:55.732Z,79.72
2017-11-28T23:11:27.371Z,79.58
2017-11-28T23:14:02.950Z,79.49
2017-11-28T23:16:34.725Z,79.54
2017-11-28T23:19:07.081Z,79.46
2017-11-28T23:21:38.622Z,79.55
2017-11-28T23:24:10.481Z,79.50
2017-11-28T23:26:41.889Z,79.46
2017-11-28T23:29:13.303Z,79.61
2017-11-28T23:31:44.966Z,79.29
2017-11-28T23:34:16.480Z,79.17
2017-11-28T23:36:47.809Z,79.10
2017-11-28T23:39:19.581Z,78.96
2017-11-28T23:41:51.088Z,79.05
2017-11-28T23:44:22.501Z,78.97
2017-11-28T23:46:54.114Z,79.00
2017-11-28T23:49:25.539Z,78.54
2017-11-28T23:51:57.279Z,78.99
2017-11-28T23:54:28.659Z,78.97
2017-11-28T23:57:00.006Z,79.13
2017-11-28T23:59:31.776Z,78.81
